Soweto, South Africa
Current Conditions -  °F | °C
As of 9:00 PM on Tuesday 21 Oct 2014 (Local Time) from FALA Reporting Station
Clear Clear  
Wind Chill: 66°   Ceiling: Unl
Heat Index: 66°   Visibility: 6mi
Dew Point: 52°   Wind: 9mph
Humidity: 60%   Direction: 70°ENE
Pressure: 30.24"   Gusts: NA
Location:  26.28°S, 27.84°E
Report Text: FALA 211900Z 07008KT CAVOK 19/11 Q1024 NOSIG
Loading
Personal Weather Stations






























Interactive Weather Map
Tropical Storm Tracking
New forecast layout! Learn more

10-Day Weather Forecast

Advertisements
Track Severe Weather on mobile